Time;durP1;ratioP1;P1;durP2;ratioP2;P2;SDS_P1;SDS_P2;PMS_P1;PMS_P2;Temp;Humidity;BMP_temperature;BMP_pressure;BME280_temperature;BME280_humidity;BME280_pressure;Samples;Min_cycle;Max_cycle;Signal;HPM_P1;HPM_P2
2023/06/23 00:01:28;;;;;;;4.68;3.35;;;;;;;;;;5073521;28;20052;-69
2023/06/23 00:03:54;;;;;;;6.35;3.53;;;;;;;;;;5071922;28;20050;-70
2023/06/23 00:06:20;;;;;;;5.63;2.97;;;;;;;;;;5073092;28;20017;-69
2023/06/23 00:08:47;;;;;;;5.53;3.80;;;;;;;;;;5072232;28;20383;-69
2023/06/23 00:11:12;;;;;;;6.47;3.55;;;;;;;;;;5072604;28;20071;-69
2023/06/23 00:13:38;;;;;;;5.47;3.00;;;;;;;;;;5072996;28;20469;-69
2023/06/23 00:16:04;;;;;;;6.40;3.53;;;;;;;;;;5071744;28;20020;-69
2023/06/23 00:18:36;;;;;;;5.28;3.25;;;;;;;;;;5071919;28;20035;-69
2023/06/23 00:21:06;;;;;;;5.90;3.58;;;;;;;;;;5071852;28;20038;-69
2023/06/23 00:23:31;;;;;;;5.57;3.58;;;;;;;;;;5071599;28;20025;-69
2023/06/23 00:25:58;;;;;;;4.72;3.20;;;;;;;;;;5071768;28;20116;-69
2023/06/23 00:28:24;;;;;;;6.35;2.85;;;;;;;;;;5072770;28;20068;-69
2023/06/23 00:30:50;;;;;;;7.60;4.90;;;;;;;;;;5072045;28;20107;-69
2023/06/23 00:33:15;;;;;;;6.13;3.47;;;;;;;;;;5072968;28;20052;-69
2023/06/23 00:35:40;;;;;;;6.43;3.30;;;;;;;;;;5071400;28;20032;-69
2023/06/23 00:38:07;;;;;;;6.25;4.28;;;;;;;;;;5072967;28;20364;-69
2023/06/23 00:40:33;;;;;;;5.10;2.92;;;;;;;;;;5076330;28;20032;-69
2023/06/23 00:42:58;;;;;;;7.97;3.50;;;;;;;;;;5075814;28;20020;-69
2023/06/23 00:45:23;;;;;;;5.63;3.42;;;;;;;;;;5076858;28;20028;-69
2023/06/23 00:47:49;;;;;;;5.10;3.10;;;;;;;;;;5076783;28;20028;-69
2023/06/23 00:50:19;;;;;;;5.65;3.40;;;;;;;;;;5076946;28;20024;-69
2023/06/23 00:52:49;;;;;;;5.50;3.72;;;;;;;;;;5076325;28;20024;-69
2023/06/23 00:55:17;;;;;;;6.68;3.33;;;;;;;;;;5076833;28;20028;-69
2023/06/23 00:57:44;;;;;;;5.07;3.55;;;;;;;;;;5076452;28;20493;-69
2023/06/23 01:00:13;;;;;;;4.85;2.92;;;;;;;;;;5075684;28;20036;-68
2023/06/23 01:02:39;;;;;;;5.50;3.90;;;;;;;;;;5075220;28;20555;-69
2023/06/23 01:05:04;;;;;;;4.65;3.13;;;;;;;;;;5076484;28;20113;-69
2023/06/23 01:07:43;;;;;;;6.10;3.65;;;;;;;;;;5075888;28;20086;-69
2023/06/23 01:10:16;;;;;;;6.07;3.55;;;;;;;;;;5074824;28;20017;-69
2023/06/23 01:13:03;;;;;;;4.90;3.28;;;;;;;;;;5075215;28;20117;-68
2023/06/23 01:15:36;;;;;;;4.35;3.17;;;;;;;;;;5076582;28;20031;-69
2023/06/23 01:18:04;;;;;;;5.32;3.10;;;;;;;;;;5076097;28;20025;-69
2023/06/23 01:20:33;;;;;;;7.28;3.38;;;;;;;;;;5072660;28;20071;-69
2023/06/23 01:23:45;;;;;;;6.55;3.70;;;;;;;;;;5075748;28;20027;-69
2023/06/23 01:26:28;;;;;;;5.15;3.25;;;;;;;;;;5072130;28;20036;-69
2023/06/23 01:28:58;;;;;;;5.88;3.50;;;;;;;;;;5056647;28;20058;-69
2023/06/23 01:31:41;;;;;;;4.82;3.35;;;;;;;;;;5056543;28;20028;-69
2023/06/23 01:34:09;;;;;;;5.22;3.67;;;;;;;;;;5055934;28;20017;-69
2023/06/23 01:37:01;;;;;;;6.18;3.83;;;;;;;;;;5054445;28;20032;-69
2023/06/23 01:39:30;;;;;;;4.93;3.53;;;;;;;;;;5070630;28;20486;-69
2023/06/23 01:41:59;;;;;;;5.03;3.35;;;;;;;;;;5055413;28;20508;-69
2023/06/23 01:44:24;;;;;;;4.53;3.03;;;;;;;;;;5070646;28;20054;-69
2023/06/23 01:46:55;;;;;;;5.35;3.38;;;;;;;;;;5075195;28;20107;-69
2023/06/23 01:49:28;;;;;;;6.78;3.38;;;;;;;;;;5062905;28;20036;-69
2023/06/23 01:51:53;;;;;;;7.28;4.00;;;;;;;;;;5055441;28;20059;-69
2023/06/23 01:54:19;;;;;;;5.57;3.65;;;;;;;;;;5061244;28;20059;-69
2023/06/23 01:56:45;;;;;;;6.03;3.22;;;;;;;;;;5075495;28;20558;-69
2023/06/23 01:59:11;;;;;;;5.63;3.30;;;;;;;;;;5071811;28;20024;-69
2023/06/23 02:01:37;;;;;;;6.38;3.42;;;;;;;;;;5075482;28;20054;-69
2023/06/23 02:04:03;;;;;;;5.45;3.30;;;;;;;;;;5073854;28;20021;-70
2023/06/23 02:06:29;;;;;;;7.00;3.65;;;;;;;;;;5072143;28;20512;-69
2023/06/23 02:08:55;;;;;;;7.18;3.50;;;;;;;;;;5073729;28;20025;-69
2023/06/23 02:11:22;;;;;;;7.80;3.78;;;;;;;;;;5070088;28;20021;-69
2023/06/23 02:13:48;;;;;;;5.72;3.33;;;;;;;;;;5053814;28;20025;-69
2023/06/23 02:16:14;;;;;;;4.60;3.50;;;;;;;;;;5056387;28;20029;-69
2023/06/23 02:18:40;;;;;;;5.10;3.53;;;;;;;;;;5074659;28;20021;-69
2023/06/23 02:21:05;;;;;;;6.60;4.72;;;;;;;;;;5073690;28;20379;-69
2023/06/23 02:23:31;;;;;;;6.50;3.35;;;;;;;;;;5073822;28;20035;-69
2023/06/23 02:25:57;;;;;;;7.10;3.78;;;;;;;;;;5073924;28;20367;-69
2023/06/23 02:28:23;;;;;;;4.30;3.25;;;;;;;;;;5057136;28;20059;-69
2023/06/23 02:30:49;;;;;;;4.80;3.20;;;;;;;;;;5074210;28;20020;-69
2023/06/23 02:33:14;;;;;;;5.93;3.78;;;;;;;;;;5073760;28;20044;-69
2023/06/23 02:35:39;;;;;;;5.88;2.83;;;;;;;;;;5074934;28;20020;-69
2023/06/23 02:38:08;;;;;;;6.57;3.72;;;;;;;;;;5074808;28;20470;-69
2023/06/23 02:40:36;;;;;;;5.03;3.38;;;;;;;;;;5073968;28;20031;-69
2023/06/23 02:43:10;;;;;;;6.18;3.72;;;;;;;;;;5074760;28;20029;-69
2023/06/23 02:45:39;;;;;;;5.07;3.30;;;;;;;;;;5073900;28;20103;-69
2023/06/23 02:48:13;;;;;;;9.55;4.45;;;;;;;;;;5073360;28;20375;-69
2023/06/23 02:50:38;;;;;;;5.20;3.30;;;;;;;;;;5073512;28;20070;-69
2023/06/23 02:53:07;;;;;;;6.65;4.15;;;;;;;;;;5074753;28;20439;-69
2023/06/23 02:55:37;;;;;;;5.97;3.50;;;;;;;;;;5073584;28;20023;-69
2023/06/23 02:58:06;;;;;;;6.00;4.03;;;;;;;;;;5074424;28;20031;-69
2023/06/23 03:00:32;;;;;;;5.32;3.15;;;;;;;;;;5072988;28;20489;-69
2023/06/23 03:02:59;;;;;;;8.27;3.90;;;;;;;;;;5073041;28;20028;-69
2023/06/23 03:05:26;;;;;;;6.40;3.00;;;;;;;;;;5073166;28;20474;-69
2023/06/23 03:07:51;;;;;;;7.78;3.92;;;;;;;;;;5074336;28;20060;-69
2023/06/23 03:10:17;;;;;;;6.90;3.60;;;;;;;;;;5073099;28;20099;-69
2023/06/23 03:12:42;;;;;;;4.45;3.10;;;;;;;;;;5074214;28;20095;-69
2023/06/23 03:15:08;;;;;;;5.63;3.53;;;;;;;;;;5074029;28;20078;-69
2023/06/23 03:17:36;;;;;;;5.75;4.30;;;;;;;;;;5072665;28;20485;-69
2023/06/23 03:20:10;;;;;;;5.13;3.20;;;;;;;;;;5056176;28;20119;-69
2023/06/23 03:22:42;;;;;;;7.47;3.65;;;;;;;;;;5074595;28;20099;-69
2023/06/23 03:25:12;;;;;;;5.78;3.90;;;;;;;;;;5074052;28;20428;-69
2023/06/23 03:27:37;;;;;;;4.68;3.08;;;;;;;;;;5074064;28;20462;-69
2023/06/23 03:30:14;;;;;;;4.80;3.00;;;;;;;;;;5073783;28;20058;-69
2023/06/23 03:32:44;;;;;;;6.15;3.38;;;;;;;;;;5072825;28;20024;-69
2023/06/23 03:35:15;;;;;;;6.10;3.63;;;;;;;;;;5072555;28;20482;-69
2023/06/23 03:37:50;;;;;;;6.00;3.45;;;;;;;;;;5072549;28;20020;-69
2023/06/23 03:40:17;;;;;;;4.60;3.35;;;;;;;;;;5055761;28;20024;-69
2023/06/23 03:42:46;;;;;;;6.78;3.50;;;;;;;;;;5072650;28;20032;-69
2023/06/23 03:45:12;;;;;;;5.30;3.63;;;;;;;;;;5072660;28;20069;-69
2023/06/23 03:47:39;;;;;;;7.38;3.80;;;;;;;;;;5072232;28;20020;-69
2023/06/23 03:50:10;;;;;;;5.38;3.30;;;;;;;;;;5072359;28;20024;-69
2023/06/23 03:52:37;;;;;;;8.40;3.28;;;;;;;;;;5071722;28;20034;-69
2023/06/23 03:55:04;;;;;;;5.43;3.20;;;;;;;;;;5072102;28;20024;-69
2023/06/23 03:57:31;;;;;;;5.68;3.78;;;;;;;;;;5068776;28;20409;-69
2023/06/23 03:59:57;;;;;;;4.20;3.20;;;;;;;;;;5053395;28;20098;-69
2023/06/23 04:02:23;;;;;;;6.07;3.60;;;;;;;;;;5053686;28;20475;-69
2023/06/23 04:04:54;;;;;;;6.47;3.50;;;;;;;;;;5052067;28;20033;-69
2023/06/23 04:07:20;;;;;;;7.57;3.58;;;;;;;;;;5052471;28;20024;-69
2023/06/23 04:09:47;;;;;;;7.93;3.70;;;;;;;;;;5052097;28;20040;-69
2023/06/23 04:12:14;;;;;;;5.68;3.67;;;;;;;;;;5052015;28;20020;-69
2023/06/23 04:14:41;;;;;;;6.15;4.28;;;;;;;;;;5053886;28;20371;-70
2023/06/23 04:17:08;;;;;;;6.22;3.13;;;;;;;;;;5059595;28;20031;-70
2023/06/23 04:19:35;;;;;;;5.93;3.20;;;;;;;;;;5071635;28;20091;-69
2023/06/23 04:22:02;;;;;;;5.30;3.13;;;;;;;;;;5072637;28;20035;-69
2023/06/23 04:24:28;;;;;;;7.80;3.60;;;;;;;;;;5071862;28;20020;-69
2023/06/23 04:26:55;;;;;;;5.07;3.38;;;;;;;;;;5071469;28;20033;-69
2023/06/23 04:29:23;;;;;;;5.10;3.03;;;;;;;;;;5071656;28;20016;-69
2023/06/23 04:31:49;;;;;;;5.72;3.40;;;;;;;;;;5071818;28;20107;-69
2023/06/23 04:34:15;;;;;;;6.07;3.92;;;;;;;;;;5071770;28;20063;-69
2023/06/23 04:36:45;;;;;;;5.43;3.72;;;;;;;;;;5072890;28;20017;-69
2023/06/23 04:39:54;;;;;;;6.13;3.72;;;;;;;;;;5071786;28;20051;-69
2023/06/23 04:42:24;;;;;;;6.50;4.50;;;;;;;;;;5072976;28;20101;-69
2023/06/23 04:44:53;;;;;;;7.57;4.18;;;;;;;;;;5072039;28;20059;-69
2023/06/23 04:47:20;;;;;;;8.52;4.05;;;;;;;;;;5071524;28;20031;-69
2023/06/23 04:49:52;;;;;;;5.85;4.68;;;;;;;;;;5072867;28;20445;-69
2023/06/23 04:52:18;;;;;;;6.60;3.63;;;;;;;;;;5071813;28;20474;-69
2023/06/23 04:54:44;;;;;;;6.13;3.67;;;;;;;;;;5072610;28;20131;-70
2023/06/23 04:57:14;;;;;;;8.93;4.22;;;;;;;;;;5071515;28;20039;-69
2023/06/23 04:59:41;;;;;;;4.40;3.30;;;;;;;;;;5071319;28;20115;-69
2023/06/23 05:02:08;;;;;;;5.95;3.65;;;;;;;;;;5071369;28;20029;-69
2023/06/23 05:04:34;;;;;;;6.57;4.78;;;;;;;;;;5071511;28;20398;-69
2023/06/23 05:07:01;;;;;;;8.05;4.43;;;;;;;;;;5071281;28;20028;-69
2023/06/23 05:09:28;;;;;;;8.35;3.78;;;;;;;;;;5071483;28;20081;-69
2023/06/23 05:11:54;;;;;;;6.10;3.30;;;;;;;;;;5071419;28;20096;-69
2023/06/23 05:14:20;;;;;;;8.05;4.05;;;;;;;;;;5071311;28;20469;-69
2023/06/23 05:16:47;;;;;;;9.82;4.05;;;;;;;;;;5088274;28;20044;-69
2023/06/23 05:19:13;;;;;;;6.28;3.83;;;;;;;;;;5071353;28;20047;-69
2023/06/23 05:21:40;;;;;;;6.20;3.55;;;;;;;;;;5071362;28;20058;-69
2023/06/23 05:24:07;;;;;;;6.20;3.50;;;;;;;;;;5072816;28;20039;-69
2023/06/23 05:26:34;;;;;;;6.50;4.03;;;;;;;;;;5074847;28;20024;-69
2023/06/23 05:29:01;;;;;;;6.40;3.97;;;;;;;;;;5074783;28;20027;-69
2023/06/23 05:31:27;;;;;;;13.27;4.20;;;;;;;;;;5075064;28;20233;-69
2023/06/23 05:33:54;;;;;;;4.85;3.42;;;;;;;;;;5075105;28;20466;-69
2023/06/23 05:36:20;;;;;;;6.53;3.88;;;;;;;;;;5075139;28;20028;-69
2023/06/23 05:38:46;;;;;;;8.25;4.40;;;;;;;;;;5074780;28;20028;-69
2023/06/23 05:41:11;;;;;;;5.75;3.63;;;;;;;;;;5075987;28;20031;-69
2023/06/23 05:43:37;;;;;;;6.43;3.53;;;;;;;;;;5074870;28;20107;-69
2023/06/23 05:46:07;;;;;;;5.50;3.90;;;;;;;;;;5075891;28;20108;-69
2023/06/23 05:48:38;;;;;;;8.20;4.15;;;;;;;;;;5074386;28;20478;-69
2023/06/23 05:51:07;;;;;;;8.52;4.18;;;;;;;;;;5076029;28;20047;-69
2023/06/23 05:53:33;;;;;;;6.75;3.63;;;;;;;;;;5074784;28;20046;-69
2023/06/23 05:56:03;;;;;;;5.78;3.97;;;;;;;;;;5074470;28;20020;-69
2023/06/23 05:58:33;;;;;;;5.68;3.75;;;;;;;;;;5074607;28;20020;-69
2023/06/23 06:01:02;;;;;;;8.85;4.43;;;;;;;;;;5074591;28;20070;-69
2023/06/23 06:03:34;;;;;;;7.43;4.00;;;;;;;;;;5058617;28;20029;-70
2023/06/23 06:06:00;;;;;;;5.85;3.85;;;;;;;;;;5075135;28;20028;-69
2023/06/23 06:08:26;;;;;;;8.65;4.03;;;;;;;;;;5073815;28;20024;-69
2023/06/23 06:10:52;;;;;;;6.60;4.53;;;;;;;;;;5074008;28;20417;-69
2023/06/23 06:13:18;;;;;;;6.03;4.07;;;;;;;;;;5075449;28;20024;-69
2023/06/23 06:15:44;;;;;;;6.10;3.85;;;;;;;;;;5073507;28;20584;-69
2023/06/23 06:18:11;;;;;;;7.15;4.00;;;;;;;;;;5074647;28;20024;-69
2023/06/23 06:20:38;;;;;;;7.13;4.35;;;;;;;;;;5073559;28;20048;-69
2023/06/23 06:23:04;;;;;;;6.32;3.95;;;;;;;;;;5070143;28;20025;-69
2023/06/23 06:25:31;;;;;;;7.63;3.55;;;;;;;;;;5053636;28;20036;-69
2023/06/23 06:27:57;;;;;;;6.55;3.63;;;;;;;;;;5066122;28;20070;-69
2023/06/23 06:30:22;;;;;;;5.43;4.00;;;;;;;;;;5074690;28;20020;-69
2023/06/23 06:32:49;;;;;;;7.07;3.88;;;;;;;;;;5070042;28;20129;-69
2023/06/23 06:35:15;;;;;;;5.80;3.78;;;;;;;;;;5054363;28;20047;-69
2023/06/23 06:37:47;;;;;;;6.68;3.85;;;;;;;;;;5057176;28;20008;-69
2023/06/23 06:40:14;;;;;;;5.25;3.42;;;;;;;;;;5055175;28;20029;-69
2023/06/23 06:42:39;;;;;;;8.30;3.83;;;;;;;;;;5053216;28;20154;-69
2023/06/23 06:45:05;;;;;;;5.72;3.50;;;;;;;;;;5074176;28;20056;-69
2023/06/23 06:47:31;;;;;;;5.05;3.72;;;;;;;;;;5072887;28;20033;-69
2023/06/23 06:49:59;;;;;;;4.55;3.03;;;;;;;;;;5073374;28;20101;-69
2023/06/23 06:52:26;;;;;;;11.73;4.18;;;;;;;;;;5074334;28;20031;-69
2023/06/23 06:54:52;;;;;;;6.47;3.33;;;;;;;;;;5073060;28;20028;-69
2023/06/23 06:57:18;;;;;;;6.30;3.65;;;;;;;;;;5072833;28;20027;-70
2023/06/23 06:59:44;;;;;;;6.32;3.30;;;;;;;;;;5074479;28;20146;-69
2023/06/23 07:02:09;;;;;;;5.57;3.45;;;;;;;;;;5089439;28;20506;-69
2023/06/23 07:04:37;;;;;;;6.35;3.33;;;;;;;;;;5073318;28;20040;-69
2023/06/23 07:07:02;;;;;;;5.32;3.53;;;;;;;;;;5072979;28;20024;-69
2023/06/23 07:09:28;;;;;;;5.05;3.47;;;;;;;;;;5073447;28;20098;-69
2023/06/23 07:11:56;;;;;;;5.82;3.28;;;;;;;;;;5074154;28;20527;-69
2023/06/23 07:14:22;;;;;;;8.60;3.50;;;;;;;;;;5072458;28;20024;-70
2023/06/23 07:16:47;;;;;;;5.97;3.45;;;;;;;;;;5073435;28;20074;-69
2023/06/23 07:19:13;;;;;;;4.93;3.15;;;;;;;;;;5113418;22;20101;-75
2023/06/23 07:21:38;;;;;;;6.18;4.45;;;;;;;;;;5092833;28;20391;-75
2023/06/23 07:24:03;;;;;;;8.68;3.63;;;;;;;;;;5076433;28;20076;-75
2023/06/23 07:26:29;;;;;;;5.75;3.75;;;;;;;;;;5093915;28;20024;-75
2023/06/23 07:28:54;;;;;;;5.82;3.50;;;;;;;;;;5092540;28;20050;-75
2023/06/23 07:31:19;;;;;;;5.90;3.05;;;;;;;;;;5093902;28;20102;-75
2023/06/23 07:33:45;;;;;;;5.90;3.80;;;;;;;;;;5093332;28;20108;-75
2023/06/23 07:36:10;;;;;;;5.82;3.38;;;;;;;;;;5092438;28;20023;-75
2023/06/23 07:38:36;;;;;;;5.85;3.33;;;;;;;;;;5092961;28;20027;-75
2023/06/23 07:41:01;;;;;;;5.95;3.58;;;;;;;;;;5093493;28;20493;-75
2023/06/23 07:43:27;;;;;;;5.78;3.05;;;;;;;;;;5084484;28;20034;-75
2023/06/23 07:45:52;;;;;;;6.15;3.65;;;;;;;;;;5072075;28;20572;-75
2023/06/23 07:48:18;;;;;;;5.30;3.13;;;;;;;;;;5072653;28;20078;-75
2023/06/23 07:50:43;;;;;;;4.97;3.20;;;;;;;;;;5072209;28;20024;-75
2023/06/23 07:53:09;;;;;;;5.90;3.70;;;;;;;;;;5073161;28;20032;-75
2023/06/23 07:55:34;;;;;;;9.05;3.50;;;;;;;;;;5071809;28;20027;-75
2023/06/23 07:57:59;;;;;;;4.32;2.95;;;;;;;;;;5064826;28;20051;-75
2023/06/23 08:00:25;;;;;;;5.57;3.80;;;;;;;;;;5064113;28;20025;-75
2023/06/23 08:02:50;;;;;;;4.78;3.35;;;;;;;;;;5055022;28;20027;-75
2023/06/23 08:05:15;;;;;;;7.10;3.63;;;;;;;;;;5068847;28;20079;-75
2023/06/23 08:07:41;;;;;;;5.78;3.28;;;;;;;;;;5053409;28;20079;-75
2023/06/23 08:10:06;;;;;;;5.53;3.40;;;;;;;;;;5055365;28;20517;-75
2023/06/23 08:12:32;;;;;;;8.25;3.85;;;;;;;;;;5070921;28;20405;-75
2023/06/23 08:14:57;;;;;;;6.15;3.30;;;;;;;;;;5050647;28;20039;-75
2023/06/23 08:17:23;;;;;;;5.50;3.08;;;;;;;;;;5051274;28;20017;-75
2023/06/23 08:19:48;;;;;;;6.57;3.50;;;;;;;;;;5050699;28;20029;-75
2023/06/23 08:22:14;;;;;;;6.38;3.38;;;;;;;;;;5063435;28;20025;-75
2023/06/23 08:24:39;;;;;;;5.35;3.70;;;;;;;;;;5067598;28;20096;-75
2023/06/23 08:27:05;;;;;;;8.18;3.97;;;;;;;;;;5052093;28;20470;-75
2023/06/23 08:29:30;;;;;;;6.10;4.13;;;;;;;;;;5052359;28;20027;-74
2023/06/23 08:31:55;;;;;;;5.75;3.90;;;;;;;;;;5067866;28;20158;-74
2023/06/23 08:34:21;;;;;;;6.57;3.38;;;;;;;;;;5052148;28;20027;-74
2023/06/23 08:36:46;;;;;;;7.03;3.28;;;;;;;;;;5050844;28;20482;-74
2023/06/23 08:39:11;;;;;;;5.95;3.90;;;;;;;;;;5067509;28;20021;-73
2023/06/23 08:41:41;;;;;;;5.72;4.10;;;;;;;;;;5067836;28;20390;-75
2023/06/23 08:44:06;;;;;;;6.28;3.40;;;;;;;;;;5050773;28;20080;-74
2023/06/23 08:46:33;;;;;;;6.68;3.70;;;;;;;;;;5050849;28;20056;-72
2023/06/23 08:49:03;;;;;;;7.15;3.40;;;;;;;;;;5067384;28;20032;-72
2023/06/23 08:51:28;;;;;;;6.05;3.80;;;;;;;;;;5050788;28;20103;-71
2023/06/23 08:53:54;;;;;;;5.85;3.72;;;;;;;;;;5067356;28;20116;-73
2023/06/23 08:56:20;;;;;;;7.10;3.65;;;;;;;;;;5051887;28;20021;-73
2023/06/23 08:58:45;;;;;;;5.90;3.92;;;;;;;;;;5050566;28;20071;-73
2023/06/23 09:01:10;;;;;;;5.72;3.63;;;;;;;;;;5055233;28;20024;-73
2023/06/23 09:03:36;;;;;;;6.57;3.67;;;;;;;;;;5055595;28;20025;-73
2023/06/23 09:06:01;;;;;;;8.02;3.83;;;;;;;;;;5070845;28;20526;-73
2023/06/23 09:08:27;;;;;;;5.60;4.05;;;;;;;;;;5070608;28;20448;-73
2023/06/23 09:10:52;;;;;;;5.82;3.60;;;;;;;;;;5055220;28;20024;-73
2023/06/23 09:13:29;;;;;;;5.30;3.50;;;;;;;;;;5055150;28;20036;-73
2023/06/23 09:15:54;;;;;;;;;;;;;;;;;;5054354;28;20394;-72
2023/06/23 09:18:20;;;;;;;5.72;3.58;;;;;;;;;;5018447;28;1025615;-74
2023/06/23 09:20:48;;;;;;;6.38;3.90;;;;;;;;;;5038499;28;20029;-73
2023/06/23 09:23:17;;;;;;;5.68;3.40;;;;;;;;;;5056340;28;20024;-74
2023/06/23 09:25:47;;;;;;;5.82;3.67;;;;;;;;;;5056259;28;20017;-73
2023/06/23 09:28:29;;;;;;;6.90;4.18;;;;;;;;;;5055128;28;20453;-74
2023/06/23 09:30:59;;;;;;;5.13;3.60;;;;;;;;;;5071679;28;20078;-73
2023/06/23 09:33:26;;;;;;;7.22;3.17;;;;;;;;;;5055226;28;20600;-73
2023/06/23 09:35:53;;;;;;;4.65;3.40;;;;;;;;;;5054965;28;20040;-73
2023/06/23 09:38:24;;;;;;;7.00;4.10;;;;;;;;;;5054804;28;20024;-73
2023/06/23 09:41:10;;;;;;;4.28;3.35;;;;;;;;;;5055976;28;20104;-73
2023/06/23 09:43:42;;;;;;;5.30;4.00;;;;;;;;;;5038099;28;20021;-72
2023/06/23 09:46:09;;;;;;;5.10;4.18;;;;;;;;;;5071376;28;20450;-74
2023/06/23 09:48:34;;;;;;;5.63;3.70;;;;;;;;;;5055764;28;20470;-73
2023/06/23 09:51:01;;;;;;;6.18;3.63;;;;;;;;;;5055786;28;20036;-73
2023/06/23 09:53:30;;;;;;;6.22;3.60;;;;;;;;;;5054628;28;20489;-72
2023/06/23 09:55:56;;;;;;;6.65;4.20;;;;;;;;;;5055718;28;20025;-73
2023/06/23 09:58:21;;;;;;;5.70;3.42;;;;;;;;;;5055971;28;20017;-74
2023/06/23 10:00:46;;;;;;;5.07;4.13;;;;;;;;;;5055573;28;20479;-73
2023/06/23 10:03:12;;;;;;;5.78;3.30;;;;;;;;;;5055856;28;20025;-73
2023/06/23 10:05:38;;;;;;;7.20;3.63;;;;;;;;;;5070983;28;20025;-74
2023/06/23 10:08:11;;;;;;;6.35;3.67;;;;;;;;;;5055337;28;20059;-74
2023/06/23 10:10:41;;;;;;;9.98;4.60;;;;;;;;;;5055582;28;20440;-73
2023/06/23 10:13:07;;;;;;;7.88;4.32;;;;;;;;;;5054500;28;20386;-74
2023/06/23 10:15:33;;;;;;;5.50;3.63;;;;;;;;;;5070879;28;20028;-74
2023/06/23 10:17:59;;;;;;;4.32;3.15;;;;;;;;;;5055406;28;20025;-74
2023/06/23 10:20:24;;;;;;;4.50;3.15;;;;;;;;;;5055279;28;20029;-74
2023/06/23 10:22:51;;;;;;;6.03;3.30;;;;;;;;;;5055503;28;20078;-73
2023/06/23 10:25:18;;;;;;;6.63;3.47;;;;;;;;;;5055439;28;20074;-74
2023/06/23 10:27:46;;;;;;;9.07;3.97;;;;;;;;;;5070497;28;20025;-73
2023/06/23 10:30:13;;;;;;;7.30;4.05;;;;;;;;;;5070527;28;20082;-74
2023/06/23 10:32:42;;;;;;;5.93;3.00;;;;;;;;;;5070537;28;20036;-74
2023/06/23 10:35:10;;;;;;;5.18;3.10;;;;;;;;;;5070523;28;20024;-73
2023/06/23 10:37:35;;;;;;;5.72;3.35;;;;;;;;;;5054884;28;20048;-74
2023/06/23 10:40:05;;;;;;;6.07;3.30;;;;;;;;;;5070437;28;20056;-73
2023/06/23 10:42:32;;;;;;;6.30;4.20;;;;;;;;;;5070497;28;20371;-74
2023/06/23 10:44:58;;;;;;;5.13;3.67;;;;;;;;;;5070290;28;20020;-73
2023/06/23 10:47:24;;;;;;;5.97;4.25;;;;;;;;;;5054655;28;20028;-75
2023/06/23 10:49:49;;;;;;;5.18;4.10;;;;;;;;;;5070153;28;20516;-74
2023/06/23 10:52:15;;;;;;;6.43;3.63;;;;;;;;;;5070266;28;20025;-74
2023/06/23 10:54:43;;;;;;;6.95;4.35;;;;;;;;;;5054659;28;20100;-75
2023/06/23 10:57:10;;;;;;;6.10;3.22;;;;;;;;;;5054720;28;20025;-74
2023/06/23 10:59:35;;;;;;;5.45;3.65;;;;;;;;;;5069864;28;20028;-74
2023/06/23 11:02:04;;;;;;;6.22;3.33;;;;;;;;;;5054639;28;20024;-73
2023/06/23 11:04:34;;;;;;;8.50;3.95;;;;;;;;;;5054429;28;20029;-74
2023/06/23 11:07:05;;;;;;;5.07;3.42;;;;;;;;;;5054300;28;20512;-74
2023/06/23 11:09:47;;;;;;;6.85;3.67;;;;;;;;;;5069775;28;20117;-74
2023/06/23 11:12:37;;;;;;;5.70;3.80;;;;;;;;;;5053077;28;20025;-75
2023/06/23 11:15:04;;;;;;;5.15;3.92;;;;;;;;;;5054310;28;20393;-74
2023/06/23 11:17:29;;;;;;;5.10;3.80;;;;;;;;;;5069322;28;20029;-75
2023/06/23 11:19:55;;;;;;;6.47;3.70;;;;;;;;;;5054527;28;20043;-74
2023/06/23 11:22:23;;;;;;;6.53;3.45;;;;;;;;;;5052321;28;20103;-74
2023/06/23 11:24:54;;;;;;;5.43;3.72;;;;;;;;;;5054101;28;20037;-75
2023/06/23 11:27:20;;;;;;;5.50;4.38;;;;;;;;;;5069800;28;20546;-77
2023/06/23 11:30:13;;;;;;;5.25;3.42;;;;;;;;;;5069863;28;20108;-76
2023/06/23 11:32:39;;;;;;;7.25;3.55;;;;;;;;;;5072954;28;20070;-77
2023/06/23 11:35:06;;;;;;;5.05;3.55;;;;;;;;;;5085086;28;20044;-75
2023/06/23 11:37:33;;;;;;;5.88;3.78;;;;;;;;;;5072280;28;20024;-76
2023/06/23 11:39:59;;;;;;;4.03;3.22;;;;;;;;;;5054889;28;20021;-76
2023/06/23 11:42:25;;;;;;;4.47;3.03;;;;;;;;;;5065921;28;20021;-76
2023/06/23 11:44:50;;;;;;;5.85;3.08;;;;;;;;;;5059363;28;20029;-76
2023/06/23 11:47:16;;;;;;;6.55;3.17;;;;;;;;;;5068768;28;20021;-76
2023/06/23 11:49:42;;;;;;;4.93;2.92;;;;;;;;;;5052397;28;20024;-76
2023/06/23 11:52:07;;;;;;;4.13;3.05;;;;;;;;;;5052683;28;20032;-76
2023/06/23 11:54:35;;;;;;;4.03;2.88;;;;;;;;;;5052304;28;20020;-76
2023/06/23 11:57:01;;;;;;;4.30;2.88;;;;;;;;;;5059632;28;20016;-76
2023/06/23 11:59:32;;;;;;;6.72;3.35;;;;;;;;;;5072649;28;20486;-76
2023/06/23 12:01:59;;;;;;;5.55;3.15;;;;;;;;;;5083020;28;20029;-76
2023/06/23 12:04:25;;;;;;;4.15;3.15;;;;;;;;;;5071838;28;20485;-76
2023/06/23 12:06:51;;;;;;;4.82;3.05;;;;;;;;;;5054762;28;20111;-76
2023/06/23 12:09:20;;;;;;;4.78;3.38;;;;;;;;;;5055376;28;20034;-76
2023/06/23 12:11:48;;;;;;;4.50;3.25;;;;;;;;;;5070611;28;20017;-75
2023/06/23 12:14:13;;;;;;;4.00;3.33;;;;;;;;;;5077238;28;20029;-76
2023/06/23 12:16:39;;;;;;;4.82;3.13;;;;;;;;;;5052005;28;20027;-76
2023/06/23 12:19:04;;;;;;;3.90;3.05;;;;;;;;;;5052947;28;20029;-76
2023/06/23 12:21:30;;;;;;;5.28;3.33;;;;;;;;;;5061856;28;20033;-76
2023/06/23 12:23:56;;;;;;;4.75;3.22;;;;;;;;;;5068561;28;20033;-76
2023/06/23 12:26:22;;;;;;;5.00;2.40;;;;;;;;;;5068634;28;20035;-76
2023/06/23 12:28:48;;;;;;;4.90;3.05;;;;;;;;;;5054267;28;20033;-76
2023/06/23 12:31:24;;;;;;;4.80;2.90;;;;;;;;;;5051524;28;20032;-76
2023/06/23 12:33:50;;;;;;;3.85;2.70;;;;;;;;;;5050446;28;20070;-76
2023/06/23 12:36:15;;;;;;;4.57;3.55;;;;;;;;;;5072855;28;20397;-76
2023/06/23 12:38:41;;;;;;;4.85;3.10;;;;;;;;;;5092707;28;20020;-76
2023/06/23 12:41:19;;;;;;;4.55;3.25;;;;;;;;;;5079271;28;20020;-76
2023/06/23 12:43:46;;;;;;;5.55;3.42;;;;;;;;;;5051844;28;20552;-76
2023/06/23 12:46:12;;;;;;;4.35;3.22;;;;;;;;;;5053808;28;20449;-77
2023/06/23 12:48:38;;;;;;;6.78;3.22;;;;;;;;;;5068048;28;20028;-76
2023/06/23 12:51:04;;;;;;;4.63;3.00;;;;;;;;;;5068012;28;20029;-77
2023/06/23 12:53:29;;;;;;;4.93;3.35;;;;;;;;;;5069091;28;20031;-76
2023/06/23 12:55:54;;;;;;;5.28;3.60;;;;;;;;;;5066492;28;20505;-76
2023/06/23 12:58:20;;;;;;;5.38;3.25;;;;;;;;;;5068244;28;20067;-77
2023/06/23 13:00:45;;;;;;;5.43;4.05;;;;;;;;;;5070722;28;20481;-76
2023/06/23 13:03:14;;;;;;;4.63;3.25;;;;;;;;;;5067998;28;20048;-77
2023/06/23 13:05:40;;;;;;;7.97;3.20;;;;;;;;;;5067215;28;20028;-76
2023/06/23 13:08:06;;;;;;;5.65;3.10;;;;;;;;;;5053533;28;20505;-76
2023/06/23 13:10:32;;;;;;;4.30;3.13;;;;;;;;;;5067708;28;20021;-77
2023/06/23 13:12:57;;;;;;;6.88;3.33;;;;;;;;;;5068001;28;20536;-76
2023/06/23 13:15:23;;;;;;;4.88;3.13;;;;;;;;;;5085028;28;20028;-76
2023/06/23 13:17:48;;;;;;;5.30;3.08;;;;;;;;;;5092300;28;20028;-76
2023/06/23 13:20:13;;;;;;;4.05;2.60;;;;;;;;;;5074505;28;20078;-76
2023/06/23 13:22:39;;;;;;;3.85;3.00;;;;;;;;;;5052272;28;20455;-76
2023/06/23 13:25:06;;;;;;;4.72;2.90;;;;;;;;;;5055849;28;20029;-76
2023/06/23 13:27:31;;;;;;;4.05;2.80;;;;;;;;;;5092830;22;20131;-77
2023/06/23 13:29:57;;;;;;;4.20;2.90;;;;;;;;;;5057171;28;20120;-77
2023/06/23 13:32:23;;;;;;;6.20;3.05;;;;;;;;;;5070766;28;20032;-74
2023/06/23 13:34:48;;;;;;;6.00;3.47;;;;;;;;;;5057909;28;20459;-75
2023/06/23 13:37:13;;;;;;;5.60;2.97;;;;;;;;;;5072004;28;20070;-75
2023/06/23 13:39:39;;;;;;;4.22;2.97;;;;;;;;;;5077631;28;20024;-75
2023/06/23 13:42:04;;;;;;;4.32;3.05;;;;;;;;;;5074353;28;20024;-77
2023/06/23 13:44:30;;;;;;;4.65;3.47;;;;;;;;;;5090499;28;20438;-77
2023/06/23 13:46:55;;;;;;;3.33;2.53;;;;;;;;;;5076542;28;20547;-77
2023/06/23 13:49:20;;;;;;;5.18;2.65;;;;;;;;;;5057802;28;20060;-77
2023/06/23 13:51:46;;;;;;;5.65;3.05;;;;;;;;;;5068711;28;20059;-77
2023/06/23 13:54:11;;;;;;;5.57;2.80;;;;;;;;;;5040713;28;20032;-75
2023/06/23 13:56:36;;;;;;;4.75;2.85;;;;;;;;;;5075588;28;20493;-75
2023/06/23 13:59:02;;;;;;;5.30;2.78;;;;;;;;;;5059322;28;20547;-77
2023/06/23 14:01:28;;;;;;;7.43;3.30;;;;;;;;;;5077803;28;20110;-77
2023/06/23 14:03:53;;;;;;;5.47;2.90;;;;;;;;;;5061017;28;20115;-77
2023/06/23 14:06:18;;;;;;;4.20;2.60;;;;;;;;;;5077767;28;20028;-77
2023/06/23 14:08:44;;;;;;;6.10;2.60;;;;;;;;;;5095296;28;20024;-77
2023/06/23 14:11:10;;;;;;;7.60;3.20;;;;;;;;;;5072170;28;20031;-77
2023/06/23 14:13:35;;;;;;;5.18;3.13;;;;;;;;;;5070562;28;20032;-77
2023/06/23 14:16:00;;;;;;;6.63;2.90;;;;;;;;;;5057443;28;20021;-77
2023/06/23 14:18:25;;;;;;;6.32;3.03;;;;;;;;;;5057766;28;20052;-77
2023/06/23 14:20:51;;;;;;;4.90;3.05;;;;;;;;;;5075098;28;20025;-77
2023/06/23 14:23:16;;;;;;;4.55;2.80;;;;;;;;;;5057150;28;20024;-77
2023/06/23 14:25:41;;;;;;;3.90;2.70;;;;;;;;;;5075521;28;20035;-79
2023/06/23 14:28:07;;;;;;;3.53;2.72;;;;;;;;;;5081303;28;20521;-75
2023/06/23 14:30:32;;;;;;;4.80;3.72;;;;;;;;;;5074711;28;20437;-75
2023/06/23 14:32:57;;;;;;;3.97;2.80;;;;;;;;;;5087710;28;20073;-75
2023/06/23 14:35:23;;;;;;;5.10;3.13;;;;;;;;;;5077283;28;20028;-75
2023/06/23 14:37:48;;;;;;;4.82;2.65;;;;;;;;;;5087686;28;20025;-75
2023/06/23 14:40:13;;;;;;;4.40;3.13;;;;;;;;;;5074705;28;20103;-75
2023/06/23 14:42:43;;;;;;;4.72;3.08;;;;;;;;;;5074951;28;20024;-75
2023/06/23 14:45:08;;;;;;;4.55;3.35;;;;;;;;;;5095126;28;20044;-75